createdAt,value
2017-12-30T00:02:25.439Z,-0.10
2017-12-30T00:05:36.067Z,-0.10
2017-12-30T00:08:46.818Z,-0.10
2017-12-30T00:11:56.944Z,-0.10
2017-12-30T00:15:06.703Z,-0.10
2017-12-30T00:18:16.497Z,-0.10
2017-12-30T00:21:26.564Z,-0.10
2017-12-30T00:24:37.036Z,-0.10
2017-12-30T00:27:46.883Z,-0.10
2017-12-30T00:30:57.531Z,-0.10
2017-12-30T00:34:07.335Z,-0.10
2017-12-30T00:37:18.089Z,-0.10
2017-12-30T00:40:27.827Z,-0.10
2017-12-30T00:43:37.662Z,-0.10
2017-12-30T00:46:48.338Z,0.00
2017-12-30T00:49:58.095Z,0.00
2017-12-30T00:53:08.699Z,0.00
2017-12-30T00:56:19.004Z,0.00
2017-12-30T00:59:29.688Z,0.10
2017-12-30T01:02:40.403Z,0.10
2017-12-30T01:05:50.275Z,0.10
2017-12-30T01:08:59.971Z,0.10
2017-12-30T01:12:09.427Z,0.10
2017-12-30T01:15:19.450Z,0.10
2017-12-30T01:18:29.138Z,0.10
2017-12-30T01:21:39.679Z,0.20
2017-12-30T01:24:50.496Z,0.20
2017-12-30T01:28:00.594Z,0.20
2017-12-30T01:31:11.279Z,0.20
2017-12-30T01:34:20.804Z,0.20
2017-12-30T01:37:30.994Z,0.30
2017-12-30T01:40:42.334Z,0.30
2017-12-30T01:43:52.349Z,0.30
2017-12-30T01:47:03.037Z,0.30
2017-12-30T01:50:13.674Z,0.30
2017-12-30T01:53:24.433Z,0.40
2017-12-30T01:56:34.887Z,0.40
2017-12-30T01:59:45.298Z,0.40
2017-12-30T02:02:55.967Z,0.50
2017-12-30T02:06:05.742Z,0.50
2017-12-30T02:09:15.672Z,0.50
2017-12-30T02:12:26.030Z,0.50
2017-12-30T02:15:36.285Z,0.50
2017-12-30T02:18:46.077Z,0.60
2017-12-30T02:21:57.494Z,0.60
2017-12-30T02:25:07.435Z,0.50
2017-12-30T02:28:17.855Z,0.60
2017-12-30T02:31:27.908Z,0.60
2017-12-30T02:34:38.020Z,0.60
2017-12-30T02:37:48.636Z,0.60
2017-12-30T02:40:58.575Z,0.60
2017-12-30T02:44:09.049Z,0.60
2017-12-30T02:47:18.619Z,0.60
2017-12-30T02:50:29.527Z,0.60
2017-12-30T02:53:39.466Z,0.60
2017-12-30T02:56:49.260Z,0.60
2017-12-30T02:59:58.995Z,0.60
2017-12-30T03:03:09.498Z,0.70
2017-12-30T03:06:19.439Z,0.60
2017-12-30T03:09:29.195Z,0.70
2017-12-30T03:12:38.924Z,0.70
2017-12-30T03:15:48.650Z,0.70
2017-12-30T03:18:59.210Z,0.70
2017-12-30T03:22:09.176Z,0.70
2017-12-30T03:25:18.977Z,0.70
2017-12-30T03:28:28.795Z,0.70
2017-12-30T03:31:40.306Z,0.70
2017-12-30T03:34:51.233Z,0.60
2017-12-30T03:38:01.300Z,0.60
2017-12-30T03:41:12.667Z,0.60
2017-12-30T03:44:23.344Z,0.60
2017-12-30T03:47:33.278Z,0.60
2017-12-30T03:50:43.032Z,0.60
2017-12-30T03:53:52.768Z,0.60
2017-12-30T03:57:04.075Z,0.60
2017-12-30T04:00:14.819Z,0.60
2017-12-30T04:03:24.894Z,0.60
2017-12-30T04:06:35.583Z,0.60
2017-12-30T04:09:46.146Z,0.60
2017-12-30T04:12:56.144Z,0.60
2017-12-30T04:16:06.811Z,0.60
2017-12-30T04:19:16.519Z,0.70
2017-12-30T04:22:27.905Z,0.60
2017-12-30T04:25:37.839Z,0.60
2017-12-30T04:28:48.338Z,0.60
2017-12-30T04:31:59.271Z,0.50
2017-12-30T04:35:10.042Z,0.50
2017-12-30T04:38:20.073Z,0.50
2017-12-30T04:41:29.788Z,0.40
2017-12-30T04:44:39.519Z,0.40
2017-12-30T04:47:50.025Z,0.30
2017-12-30T04:51:00.120Z,0.30
2017-12-30T04:54:10.101Z,0.30
2017-12-30T04:57:19.865Z,0.30
2017-12-30T05:00:29.609Z,0.30
2017-12-30T05:03:41.034Z,0.20
2017-12-30T05:06:51.877Z,0.20
2017-12-30T05:10:02.683Z,0.20
2017-12-30T05:13:12.856Z,0.10
2017-12-30T05:16:23.472Z,0.20
2017-12-30T05:19:33.210Z,0.10
2017-12-30T05:22:42.959Z,0.10
2017-12-30T05:25:54.323Z,0.10
2017-12-30T05:29:04.299Z,0.10
2017-12-30T05:32:14.079Z,0.00
2017-12-30T05:35:24.522Z,0.00
2017-12-30T05:38:35.359Z,0.00
2017-12-30T05:41:46.275Z,0.00
2017-12-30T05:44:56.097Z,0.00
2017-12-30T05:48:06.782Z,0.00
2017-12-30T05:51:19.031Z,0.30
2017-12-30T05:54:29.052Z,0.30
2017-12-30T05:57:39.654Z,0.40
2017-12-30T06:00:49.711Z,0.40
2017-12-30T06:03:59.558Z,0.50
2017-12-30T06:07:11.507Z,0.60
2017-12-30T06:10:21.919Z,0.60
2017-12-30T06:13:31.782Z,0.60
2017-12-30T06:16:41.621Z,0.70
2017-12-30T06:19:51.613Z,0.80
2017-12-30T06:23:02.234Z,0.80
2017-12-30T06:26:12.020Z,0.80
2017-12-30T06:29:21.818Z,0.90
2017-12-30T06:32:32.384Z,0.90
2017-12-30T06:35:43.696Z,0.90
2017-12-30T06:38:54.265Z,0.90
2017-12-30T06:42:04.870Z,0.90
2017-12-30T06:45:14.732Z,0.90
2017-12-30T06:48:25.385Z,0.90
2017-12-30T06:51:36.314Z,0.90
2017-12-30T06:54:46.908Z,0.90
2017-12-30T06:57:57.650Z,0.90
2017-12-30T07:01:07.778Z,1.00
2017-12-30T07:04:18.431Z,1.00
2017-12-30T07:07:29.397Z,1.00
2017-12-30T07:10:39.960Z,1.00
2017-12-30T07:13:50.469Z,1.00
2017-12-30T07:17:00.468Z,1.00
2017-12-30T07:20:11.182Z,1.00
2017-12-30T07:23:22.038Z,1.00
2017-12-30T07:26:31.960Z,1.00
2017-12-30T07:29:42.622Z,1.10
2017-12-30T07:32:54.110Z,1.00
2017-12-30T07:36:04.115Z,1.00
2017-12-30T07:39:14.775Z,1.00
2017-12-30T07:42:25.659Z,1.00
2017-12-30T07:45:36.316Z,1.00
2017-12-30T07:48:49.136Z,1.00
2017-12-30T07:51:59.254Z,1.00
2017-12-30T07:55:10.660Z,1.00
2017-12-30T07:58:32.075Z,0.90
2017-12-30T08:01:42.400Z,1.00
2017-12-30T08:04:52.102Z,1.00
2017-12-30T08:08:01.856Z,1.00
2017-12-30T08:11:11.728Z,1.10
2017-12-30T08:14:21.503Z,1.10
2017-12-30T08:17:31.265Z,1.10
2017-12-30T08:20:41.850Z,1.20
2017-12-30T08:23:51.690Z,1.10
2017-12-30T08:27:01.529Z,1.30
2017-12-30T08:30:11.339Z,1.30
2017-12-30T08:33:21.356Z,1.50
2017-12-30T08:36:32.019Z,1.50
2017-12-30T08:39:41.960Z,1.50
2017-12-30T08:42:53.431Z,1.80
2017-12-30T08:46:03.420Z,1.70
2017-12-30T08:49:13.872Z,1.80
2017-12-30T08:52:23.822Z,1.90
2017-12-30T08:55:34.376Z,2.00
2017-12-30T08:58:44.675Z,2.00
2017-12-30T09:01:54.538Z,2.00
2017-12-30T09:05:04.103Z,2.00
2017-12-30T09:08:14.186Z,2.10
2017-12-30T09:11:24.831Z,2.10
2017-12-30T09:14:35.457Z,2.10
2017-12-30T09:17:45.612Z,2.20
2017-12-30T09:20:55.294Z,2.10
2017-12-30T09:24:05.353Z,2.20
2017-12-30T09:27:15.985Z,2.20
2017-12-30T09:30:26.587Z,2.30
2017-12-30T09:33:37.242Z,2.30
2017-12-30T09:36:48.074Z,2.30
2017-12-30T09:39:57.964Z,2.30
2017-12-30T09:43:08.537Z,2.40
2017-12-30T09:46:18.507Z,2.40
2017-12-30T09:49:29.087Z,2.50
2017-12-30T09:52:39.616Z,2.50
2017-12-30T09:55:49.572Z,2.50
2017-12-30T09:58:59.461Z,2.60
2017-12-30T10:02:09.250Z,2.60
2017-12-30T10:05:19.131Z,2.70
2017-12-30T10:08:28.888Z,2.80
2017-12-30T10:11:38.684Z,2.90
2017-12-30T10:14:48.503Z,2.90
2017-12-30T10:17:59.243Z,3.00
2017-12-30T10:21:09.136Z,3.00
2017-12-30T10:24:18.847Z,3.00
2017-12-30T10:27:29.494Z,3.00
2017-12-30T10:30:39.252Z,3.00
2017-12-30T10:33:49.220Z,3.00
2017-12-30T10:36:58.988Z,3.00
2017-12-30T10:40:08.759Z,3.00
2017-12-30T10:43:18.449Z,3.00
2017-12-30T10:46:28.255Z,3.10
2017-12-30T10:49:38.943Z,3.10
2017-12-30T10:52:49.593Z,3.20
2017-12-30T10:55:59.386Z,3.20
2017-12-30T10:59:10.607Z,3.30
2017-12-30T11:02:20.586Z,3.30
2017-12-30T11:05:30.395Z,3.40
2017-12-30T11:08:40.314Z,3.40
2017-12-30T11:11:50.098Z,3.40
2017-12-30T11:15:00.855Z,3.50
2017-12-30T11:18:11.092Z,3.50
2017-12-30T11:21:20.911Z,3.50
2017-12-30T11:24:31.625Z,3.50
2017-12-30T11:27:42.333Z,3.50
2017-12-30T11:30:53.816Z,3.50
2017-12-30T11:34:03.729Z,3.50
2017-12-30T11:37:13.415Z,3.50
2017-12-30T11:40:23.158Z,3.50
2017-12-30T11:43:33.279Z,3.50
2017-12-30T11:46:43.592Z,3.40
2017-12-30T11:49:53.601Z,3.40
2017-12-30T11:53:04.124Z,3.30
2017-12-30T11:56:15.303Z,3.30
2017-12-30T11:59:26.644Z,3.30
2017-12-30T12:02:37.487Z,3.30
2017-12-30T12:05:47.703Z,3.20
2017-12-30T12:08:58.487Z,3.30
2017-12-30T12:12:09.130Z,3.30
2017-12-30T12:15:19.400Z,3.30
2017-12-30T12:18:29.980Z,3.20
2017-12-30T12:21:40.753Z,3.20
2017-12-30T12:24:50.628Z,3.20
2017-12-30T12:28:00.359Z,3.20
2017-12-30T12:31:10.248Z,3.20
2017-12-30T12:34:20.034Z,3.10
2017-12-30T12:37:29.712Z,3.20
2017-12-30T12:40:39.681Z,3.20
2017-12-30T12:43:50.382Z,3.20
2017-12-30T12:47:00.904Z,3.20
2017-12-30T12:50:11.467Z,3.20
2017-12-30T12:53:22.277Z,3.30
2017-12-30T12:56:32.438Z,3.20
2017-12-30T12:59:42.356Z,3.30
2017-12-30T13:02:53.042Z,3.30
2017-12-30T13:06:03.765Z,3.40
2017-12-30T13:09:14.428Z,3.50
2017-12-30T13:12:24.236Z,3.50
2017-12-30T13:15:35.791Z,3.60
2017-12-30T13:18:45.773Z,3.60
2017-12-30T13:21:55.511Z,3.60
2017-12-30T13:25:06.204Z,3.60
2017-12-30T13:28:16.803Z,3.60
2017-12-30T13:31:27.380Z,3.60
2017-12-30T13:34:38.460Z,3.70
2017-12-30T13:37:48.638Z,3.70
2017-12-30T13:40:59.320Z,3.70
2017-12-30T13:44:09.318Z,3.70
2017-12-30T13:47:20.034Z,3.70
2017-12-30T13:50:31.361Z,3.90
2017-12-30T13:53:41.488Z,3.80
2017-12-30T13:56:51.995Z,3.80
2017-12-30T14:00:02.762Z,3.90
2017-12-30T14:03:12.930Z,3.90
2017-12-30T14:06:24.397Z,3.90
2017-12-30T14:09:34.733Z,3.90
2017-12-30T14:12:44.550Z,4.00
2017-12-30T14:15:55.272Z,4.10
2017-12-30T14:19:06.863Z,4.20
2017-12-30T14:22:16.830Z,4.20
2017-12-30T14:25:26.592Z,4.30
2017-12-30T14:28:37.325Z,4.30
2017-12-30T14:31:48.039Z,4.30
2017-12-30T14:34:58.873Z,4.60
2017-12-30T14:38:08.937Z,4.60
2017-12-30T14:41:18.698Z,4.70
2017-12-30T14:44:29.469Z,4.70
2017-12-30T14:47:40.101Z,4.70
2017-12-30T14:50:50.465Z,4.70
2017-12-30T14:54:00.579Z,4.70
2017-12-30T14:57:11.263Z,4.70
2017-12-30T15:00:22.606Z,4.80
2017-12-30T15:03:32.661Z,4.70
2017-12-30T15:06:42.471Z,4.70
2017-12-30T15:09:52.350Z,4.70
2017-12-30T15:13:03.111Z,4.70
2017-12-30T15:16:14.601Z,4.80
2017-12-30T15:19:24.753Z,4.80
2017-12-30T15:22:35.384Z,4.90
2017-12-30T15:25:45.371Z,4.90
2017-12-30T15:28:55.104Z,4.90
2017-12-30T15:32:05.788Z,4.90
2017-12-30T15:35:15.623Z,4.90
2017-12-30T15:38:26.195Z,4.90
2017-12-30T15:41:36.334Z,5.00
2017-12-30T15:44:46.013Z,4.90
2017-12-30T15:47:56.221Z,5.00
2017-12-30T15:51:06.242Z,5.00
2017-12-30T15:54:17.679Z,5.00
2017-12-30T15:57:27.601Z,5.00
2017-12-30T16:00:37.630Z,5.00
2017-12-30T16:03:48.255Z,5.00
2017-12-30T16:06:58.935Z,5.00
2017-12-30T16:10:08.662Z,5.00
2017-12-30T16:13:18.425Z,5.10
2017-12-30T16:16:30.223Z,5.00
2017-12-30T16:19:39.964Z,5.00
2017-12-30T16:22:49.746Z,5.10
2017-12-30T16:26:00.423Z,5.10
2017-12-30T16:29:10.112Z,5.10
2017-12-30T16:32:20.801Z,5.20
2017-12-30T16:35:30.682Z,5.20
2017-12-30T16:38:40.411Z,5.20
2017-12-30T16:41:50.142Z,5.20
2017-12-30T16:45:00.852Z,5.30
2017-12-30T16:48:10.732Z,5.30
2017-12-30T16:51:21.441Z,5.30
2017-12-30T16:54:32.081Z,5.40
2017-12-30T16:57:42.703Z,5.40
2017-12-30T17:00:54.036Z,5.60
2017-12-30T17:04:04.033Z,5.50
2017-12-30T17:07:14.736Z,5.60
2017-12-30T17:10:24.629Z,5.70
2017-12-30T17:13:34.392Z,5.70
2017-12-30T17:16:44.249Z,5.80
2017-12-30T17:19:54.238Z,5.70
2017-12-30T17:23:04.957Z,5.90
2017-12-30T17:26:15.637Z,5.90
2017-12-30T17:29:26.325Z,5.90
2017-12-30T17:32:36.994Z,5.90
2017-12-30T17:35:47.093Z,5.90
2017-12-30T17:38:57.736Z,6.00
2017-12-30T17:42:07.797Z,5.90
2017-12-30T17:45:17.605Z,6.00
2017-12-30T17:48:29.123Z,6.00
2017-12-30T17:51:39.349Z,6.00
2017-12-30T17:54:50.079Z,6.10
2017-12-30T17:57:59.985Z,6.10
2017-12-30T18:01:10.707Z,6.20
2017-12-30T18:04:21.467Z,6.20
2017-12-30T18:07:32.197Z,6.20
2017-12-30T18:10:42.855Z,6.30
2017-12-30T18:13:52.778Z,6.30
2017-12-30T18:17:02.679Z,6.30
2017-12-30T18:20:14.143Z,6.30
2017-12-30T18:23:24.403Z,6.30
2017-12-30T18:26:35.084Z,6.30
2017-12-30T18:29:45.837Z,6.40
2017-12-30T18:32:55.917Z,6.30
2017-12-30T18:36:06.502Z,6.50
2017-12-30T18:39:16.606Z,6.50
2017-12-30T18:42:26.445Z,6.50
2017-12-30T18:45:37.161Z,6.60
2017-12-30T18:48:47.111Z,6.50
2017-12-30T18:51:58.522Z,6.50
2017-12-30T18:55:08.641Z,6.50
2017-12-30T18:58:18.441Z,6.50
2017-12-30T19:01:28.350Z,6.50
2017-12-30T19:04:38.318Z,6.50
2017-12-30T19:07:49.084Z,6.50
2017-12-30T19:10:59.010Z,6.50
2017-12-30T19:14:08.812Z,6.70
2017-12-30T19:17:18.639Z,6.70
2017-12-30T19:20:29.214Z,6.70
2017-12-30T19:23:40.134Z,6.90
2017-12-30T19:26:50.101Z,6.90
2017-12-30T19:29:59.947Z,6.90
2017-12-30T19:33:11.507Z,7.10
2017-12-30T19:36:21.629Z,7.00
2017-12-30T19:39:31.516Z,7.10
2017-12-30T19:42:42.744Z,7.20
2017-12-30T19:45:53.009Z,7.30
2017-12-30T19:49:02.681Z,7.30
2017-12-30T19:52:14.179Z,7.20
2017-12-30T19:55:25.218Z,7.30
2017-12-30T19:58:35.251Z,7.30
2017-12-30T20:01:45.194Z,7.40
2017-12-30T20:04:55.050Z,7.40
2017-12-30T20:08:05.682Z,7.40
2017-12-30T20:11:15.490Z,7.30
2017-12-30T20:14:25.405Z,7.40
2017-12-30T20:17:35.996Z,7.50
2017-12-30T20:20:46.117Z,7.40
2017-12-30T20:23:57.672Z,7.50
2017-12-30T20:27:07.679Z,7.40
2017-12-30T20:30:17.609Z,7.60
2017-12-30T20:33:28.390Z,7.60
2017-12-30T20:36:38.979Z,7.60
2017-12-30T20:39:48.832Z,7.70
2017-12-30T20:42:59.663Z,7.60
2017-12-30T20:46:09.448Z,7.60
2017-12-30T20:49:19.192Z,7.60
2017-12-30T20:52:29.382Z,7.60
2017-12-30T20:55:39.203Z,7.70
2017-12-30T20:58:49.171Z,7.70
2017-12-30T21:01:59.977Z,7.60
2017-12-30T21:05:10.715Z,7.80
2017-12-30T21:08:21.405Z,7.90
2017-12-30T21:11:31.212Z,7.90
2017-12-30T21:14:41.111Z,8.00
2017-12-30T21:17:51.742Z,8.00
2017-12-30T21:21:02.632Z,7.90
2017-12-30T21:24:13.023Z,8.00
2017-12-30T21:27:22.851Z,8.00
2017-12-30T21:30:33.571Z,8.10
2017-12-30T21:33:44.350Z,8.00
2017-12-30T21:36:55.133Z,8.10
2017-12-30T21:40:05.233Z,8.10
2017-12-30T21:43:15.145Z,8.00
2017-12-30T21:46:24.851Z,8.10
2017-12-30T21:49:35.601Z,8.10
2017-12-30T21:52:45.762Z,8.10
2017-12-30T21:55:55.792Z,8.10
2017-12-30T21:59:06.584Z,8.10
2017-12-30T22:02:18.196Z,8.20
2017-12-30T22:05:28.916Z,8.20
2017-12-30T22:08:38.913Z,8.20
2017-12-30T22:11:48.788Z,8.20
2017-12-30T22:14:59.884Z,8.20
2017-12-30T22:18:10.282Z,8.20
2017-12-30T22:21:20.098Z,8.30
2017-12-30T22:24:29.983Z,8.40
2017-12-30T22:27:39.982Z,8.50
2017-12-30T22:30:50.638Z,8.60
2017-12-30T22:34:02.135Z,8.50
2017-12-30T22:37:12.395Z,8.50
2017-12-30T22:40:22.472Z,8.50
2017-12-30T22:43:32.517Z,8.60
2017-12-30T22:46:42.366Z,8.60
2017-12-30T22:49:52.295Z,8.70
2017-12-30T22:53:02.189Z,8.60
2017-12-30T22:56:12.905Z,8.70
2017-12-30T22:59:22.970Z,8.60
2017-12-30T23:02:33.050Z,8.70
2017-12-30T23:05:43.725Z,8.70
2017-12-30T23:08:53.848Z,8.70
2017-12-30T23:12:03.711Z,8.70
2017-12-30T23:15:13.638Z,8.90
2017-12-30T23:18:24.332Z,8.80
2017-12-30T23:21:34.989Z,8.80
2017-12-30T23:24:44.858Z,8.80
2017-12-30T23:27:55.618Z,8.80
2017-12-30T23:31:06.259Z,8.70
2017-12-30T23:34:17.031Z,8.70
2017-12-30T23:37:28.155Z,8.70
2017-12-30T23:40:38.224Z,8.60
2017-12-30T23:43:48.119Z,8.60
2017-12-30T23:46:58.188Z,8.70
2017-12-30T23:50:08.884Z,8.70
2017-12-30T23:53:19.207Z,8.60
2017-12-30T23:56:29.210Z,8.70
2017-12-30T23:59:39.014Z,8.60
